<?xml version="1.0" encoding="UTF-8" standalone="no" ?>
<gpx xmlns="http://www.topografix.com/GPX/1/1" xmlns:xsi="http://www.w3.org/2001/XMLSchema-instance" xsi:schemaLocation="http://www.topografix.com/GPX/1/1 http://www.topografix.com/GPX/1/1/gpx.xsd" version="1.1" creator="VisuGPX - https://www.visugpx.com">
  <metadata>
    <name>circuit Puget</name>
    <desc><![CDATA[philman 52
géocaching]]></desc>
  </metadata>
  <trk>
    <name><![CDATA[2020-10-25 11:15:20]]></name>
    <extensions>
      <line xmlns="http://www.topografix.com/GPX/gpx_style/0/2">
        <color>0000FF</color>
        <width>4</width>
      </line>
    </extensions>
    <trkseg>
      <trkpt lat="43.46784" lon="6.68239">
        <ele>14.31</ele>
        <time>2020-10-25T09:08:02Z</time>
      </trkpt>
      <trkpt lat="43.46784" lon="6.68239">
        <ele>14.31</ele>
        <time>2020-10-25T09:08:03Z</time>
      </trkpt>
      <trkpt lat="43.46766" lon="6.68267">
        <ele>13.98</ele>
        <time>2020-10-25T09:09:05Z</time>
      </trkpt>
      <trkpt lat="43.46751" lon="6.68294">
        <ele>13.56</ele>
        <time>2020-10-25T09:09:29Z</time>
      </trkpt>
      <trkpt lat="43.46738" lon="6.68304">
        <ele>13.09</ele>
        <time>2020-10-25T09:09:52Z</time>
      </trkpt>
      <trkpt lat="43.46732" lon="6.6831">
        <ele>12.83</ele>
        <time>2020-10-25T09:10:21Z</time>
      </trkpt>
      <trkpt lat="43.46718" lon="6.68311">
        <ele>12.5</ele>
        <time>2020-10-25T09:10:44Z</time>
      </trkpt>
      <trkpt lat="43.46709" lon="6.68314">
        <ele>12.46</ele>
        <time>2020-10-25T09:10:52Z</time>
      </trkpt>
      <trkpt lat="43.46702" lon="6.68355">
        <ele>12.03</ele>
        <time>2020-10-25T09:11:21Z</time>
      </trkpt>
      <trkpt lat="43.46701" lon="6.68365">
        <ele>12.02</ele>
        <time>2020-10-25T09:11:27Z</time>
      </trkpt>
      <trkpt lat="43.46699" lon="6.68395">
        <ele>11.84</ele>
        <time>2020-10-25T09:11:50Z</time>
      </trkpt>
      <trkpt lat="43.46697" lon="6.68407">
        <ele>11.67</ele>
        <time>2020-10-25T09:11:59Z</time>
      </trkpt>
      <trkpt lat="43.46704" lon="6.68417">
        <ele>11.64</ele>
        <time>2020-10-25T09:12:25Z</time>
      </trkpt>
      <trkpt lat="43.46717" lon="6.6842">
        <ele>11.71</ele>
        <time>2020-10-25T09:12:47Z</time>
      </trkpt>
      <trkpt lat="43.46723" lon="6.68419">
        <ele>11.73</ele>
        <time>2020-10-25T09:12:54Z</time>
      </trkpt>
      <trkpt lat="43.46745" lon="6.6842">
        <ele>12.26</ele>
        <time>2020-10-25T09:13:18Z</time>
      </trkpt>
      <trkpt lat="43.46755" lon="6.68421">
        <ele>12.1</ele>
        <time>2020-10-25T09:13:37Z</time>
      </trkpt>
      <trkpt lat="43.46758" lon="6.68417">
        <ele>12.1</ele>
        <time>2020-10-25T09:13:42Z</time>
      </trkpt>
      <trkpt lat="43.46762" lon="6.6839">
        <ele>12.43</ele>
        <time>2020-10-25T09:14:04Z</time>
      </trkpt>
      <trkpt lat="43.46761" lon="6.68365">
        <ele>12.21</ele>
        <time>2020-10-25T09:14:25Z</time>
      </trkpt>
      <trkpt lat="43.46761" lon="6.68353">
        <ele>12.54</ele>
        <time>2020-10-25T09:14:50Z</time>
      </trkpt>
      <trkpt lat="43.46772" lon="6.68329">
        <ele>12.95</ele>
        <time>2020-10-25T09:15:14Z</time>
      </trkpt>
      <trkpt lat="43.46775" lon="6.68327">
        <ele>13.07</ele>
        <time>2020-10-25T09:15:36Z</time>
      </trkpt>
      <trkpt lat="43.46775" lon="6.68328">
        <ele>13.06</ele>
        <time>2020-10-25T09:15:37Z</time>
      </trkpt>
      <trkpt lat="43.46784" lon="6.68332">
        <ele>13.3</ele>
        <time>2020-10-25T09:15:56Z</time>
      </trkpt>
      <trkpt lat="43.46798" lon="6.68334">
        <ele>13.81</ele>
        <time>2020-10-25T09:16:21Z</time>
      </trkpt>
      <trkpt lat="43.4681" lon="6.68335">
        <ele>14.93</ele>
        <time>2020-10-25T09:16:36Z</time>
      </trkpt>
      <trkpt lat="43.46833" lon="6.6833">
        <ele>15.96</ele>
        <time>2020-10-25T09:17:01Z</time>
      </trkpt>
      <trkpt lat="43.46846" lon="6.68314">
        <ele>16.71</ele>
        <time>2020-10-25T09:17:31Z</time>
      </trkpt>
      <trkpt lat="43.46854" lon="6.68307">
        <ele>17.04</ele>
        <time>2020-10-25T09:18:16Z</time>
      </trkpt>
      <trkpt lat="43.46856" lon="6.68301">
        <ele>17.23</ele>
        <time>2020-10-25T09:18:55Z</time>
      </trkpt>
      <trkpt lat="43.46863" lon="6.68291">
        <ele>18.39</ele>
        <time>2020-10-25T09:19:08Z</time>
      </trkpt>
      <trkpt lat="43.46953" lon="6.68172">
        <ele>14.52</ele>
        <time>2020-10-25T09:21:26Z</time>
      </trkpt>
      <trkpt lat="43.46955" lon="6.68175">
        <ele>14.52</ele>
        <time>2020-10-25T09:21:27Z</time>
      </trkpt>
      <trkpt lat="43.46958" lon="6.68165">
        <ele>14.13</ele>
        <time>2020-10-25T09:21:37Z</time>
      </trkpt>
      <trkpt lat="43.46965" lon="6.68159">
        <ele>14.21</ele>
        <time>2020-10-25T09:22:07Z</time>
      </trkpt>
      <trkpt lat="43.46969" lon="6.68148">
        <ele>14.02</ele>
        <time>2020-10-25T09:22:31Z</time>
      </trkpt>
      <trkpt lat="43.46979" lon="6.68138">
        <ele>14.45</ele>
        <time>2020-10-25T09:22:51Z</time>
      </trkpt>
      <trkpt lat="43.46993" lon="6.68129">
        <ele>15.31</ele>
        <time>2020-10-25T09:23:10Z</time>
      </trkpt>
      <trkpt lat="43.47032" lon="6.68096">
        <ele>16.14</ele>
        <time>2020-10-25T09:23:42Z</time>
      </trkpt>
      <trkpt lat="43.47052" lon="6.68101">
        <ele>17.14</ele>
        <time>2020-10-25T09:24:11Z</time>
      </trkpt>
      <trkpt lat="43.47073" lon="6.68086">
        <ele>18</ele>
        <time>2020-10-25T09:24:41Z</time>
      </trkpt>
      <trkpt lat="43.47084" lon="6.68071">
        <ele>18.51</ele>
        <time>2020-10-25T09:25:13Z</time>
      </trkpt>
      <trkpt lat="43.47094" lon="6.68053">
        <ele>19.26</ele>
        <time>2020-10-25T09:25:42Z</time>
      </trkpt>
      <trkpt lat="43.47106" lon="6.68034">
        <ele>19.79</ele>
        <time>2020-10-25T09:26:14Z</time>
      </trkpt>
      <trkpt lat="43.47111" lon="6.68033">
        <ele>20.07</ele>
        <time>2020-10-25T09:26:44Z</time>
      </trkpt>
      <trkpt lat="43.47121" lon="6.6802">
        <ele>20.75</ele>
        <time>2020-10-25T09:27:26Z</time>
      </trkpt>
      <trkpt lat="43.47134" lon="6.68001">
        <ele>21.55</ele>
        <time>2020-10-25T09:27:50Z</time>
      </trkpt>
      <trkpt lat="43.47147" lon="6.67975">
        <ele>22.22</ele>
        <time>2020-10-25T09:28:17Z</time>
      </trkpt>
      <trkpt lat="43.47154" lon="6.67968">
        <ele>22.81</ele>
        <time>2020-10-25T09:28:50Z</time>
      </trkpt>
      <trkpt lat="43.47156" lon="6.67967">
        <ele>22.78</ele>
        <time>2020-10-25T09:28:52Z</time>
      </trkpt>
      <trkpt lat="43.47169" lon="6.67946">
        <ele>23.96</ele>
        <time>2020-10-25T09:29:15Z</time>
      </trkpt>
      <trkpt lat="43.47174" lon="6.67935">
        <ele>24.36</ele>
        <time>2020-10-25T09:29:48Z</time>
      </trkpt>
      <trkpt lat="43.47178" lon="6.67932">
        <ele>24.31</ele>
        <time>2020-10-25T09:30:33Z</time>
      </trkpt>
      <trkpt lat="43.47196" lon="6.679">
        <ele>25.18</ele>
        <time>2020-10-25T09:31:07Z</time>
      </trkpt>
      <trkpt lat="43.47204" lon="6.67878">
        <ele>25.71</ele>
        <time>2020-10-25T09:31:40Z</time>
      </trkpt>
      <trkpt lat="43.47205" lon="6.67877">
        <ele>25.75</ele>
        <time>2020-10-25T09:31:41Z</time>
      </trkpt>
      <trkpt lat="43.47217" lon="6.67851">
        <ele>27.1</ele>
        <time>2020-10-25T09:32:05Z</time>
      </trkpt>
      <trkpt lat="43.47226" lon="6.67834">
        <ele>28.03</ele>
        <time>2020-10-25T09:32:26Z</time>
      </trkpt>
      <trkpt lat="43.47229" lon="6.67822">
        <ele>28.24</ele>
        <time>2020-10-25T09:32:39Z</time>
      </trkpt>
      <trkpt lat="43.4723" lon="6.67819">
        <ele>28.25</ele>
        <time>2020-10-25T09:32:41Z</time>
      </trkpt>
      <trkpt lat="43.4723" lon="6.67799">
        <ele>28.38</ele>
        <time>2020-10-25T09:33:02Z</time>
      </trkpt>
      <trkpt lat="43.4723" lon="6.67793">
        <ele>28.61</ele>
        <time>2020-10-25T09:33:30Z</time>
      </trkpt>
      <trkpt lat="43.47221" lon="6.67774">
        <ele>28.48</ele>
        <time>2020-10-25T09:33:55Z</time>
      </trkpt>
      <trkpt lat="43.47226" lon="6.67751">
        <ele>29.49</ele>
        <time>2020-10-25T09:34:21Z</time>
      </trkpt>
      <trkpt lat="43.47226" lon="6.67731">
        <ele>30.13</ele>
        <time>2020-10-25T09:34:38Z</time>
      </trkpt>
      <trkpt lat="43.47226" lon="6.677">
        <ele>30.44</ele>
        <time>2020-10-25T09:35:08Z</time>
      </trkpt>
      <trkpt lat="43.47225" lon="6.6766">
        <ele>32.45</ele>
        <time>2020-10-25T09:35:40Z</time>
      </trkpt>
      <trkpt lat="43.47223" lon="6.67584">
        <ele>51</ele>
      </trkpt>
      <trkpt lat="43.47308" lon="6.67568">
        <ele>54.3</ele>
      </trkpt>
      <trkpt lat="43.47464" lon="6.67609">
        <ele>59</ele>
      </trkpt>
      <trkpt lat="43.4753" lon="6.67631">
        <ele>59</ele>
      </trkpt>
      <trkpt lat="43.47613" lon="6.67596">
        <ele>58</ele>
      </trkpt>
      <trkpt lat="43.47904" lon="6.67479">
        <ele>64.3</ele>
      </trkpt>
      <trkpt lat="43.47577" lon="6.67619">
        <ele>59</ele>
      </trkpt>
      <trkpt lat="43.47538" lon="6.67629">
        <ele>59</ele>
      </trkpt>
      <trkpt lat="43.47498" lon="6.67629">
        <ele>59</ele>
      </trkpt>
      <trkpt lat="43.47421" lon="6.6759">
        <ele>58</ele>
      </trkpt>
      <trkpt lat="43.4735" lon="6.6757">
        <ele>56</ele>
      </trkpt>
      <trkpt lat="43.47269" lon="6.67576">
        <ele>52.8</ele>
      </trkpt>
      <trkpt lat="43.47223" lon="6.67584">
        <ele>34.44</ele>
        <time>2020-10-25T09:38:40Z</time>
      </trkpt>
      <trkpt lat="43.47227" lon="6.6759">
        <ele>34.55</ele>
        <time>2020-10-25T09:39:22Z</time>
      </trkpt>
      <trkpt lat="43.47218" lon="6.67584">
        <ele>34.52</ele>
        <time>2020-10-25T09:40:01Z</time>
      </trkpt>
      <trkpt lat="43.47215" lon="6.67583">
        <ele>34.42</ele>
        <time>2020-10-25T09:40:05Z</time>
      </trkpt>
      <trkpt lat="43.47194" lon="6.67574">
        <ele>34.04</ele>
        <time>2020-10-25T09:40:30Z</time>
      </trkpt>
      <trkpt lat="43.47172" lon="6.67556">
        <ele>33.89</ele>
        <time>2020-10-25T09:40:55Z</time>
      </trkpt>
      <trkpt lat="43.47168" lon="6.67546">
        <ele>33.72</ele>
        <time>2020-10-25T09:41:03Z</time>
      </trkpt>
      <trkpt lat="43.47167" lon="6.67542">
        <ele>33.67</ele>
        <time>2020-10-25T09:41:06Z</time>
      </trkpt>
      <trkpt lat="43.47157" lon="6.67513">
        <ele>34.06</ele>
        <time>2020-10-25T09:41:28Z</time>
      </trkpt>
      <trkpt lat="43.47151" lon="6.67485">
        <ele>34.67</ele>
        <time>2020-10-25T09:41:53Z</time>
      </trkpt>
      <trkpt lat="43.47145" lon="6.67471">
        <ele>34.92</ele>
        <time>2020-10-25T09:42:17Z</time>
      </trkpt>
      <trkpt lat="43.47144" lon="6.67468">
        <ele>34.99</ele>
        <time>2020-10-25T09:42:20Z</time>
      </trkpt>
      <trkpt lat="43.47143" lon="6.67464">
        <ele>35.09</ele>
        <time>2020-10-25T09:42:23Z</time>
      </trkpt>
      <trkpt lat="43.4714" lon="6.67453">
        <ele>35.08</ele>
        <time>2020-10-25T09:42:37Z</time>
      </trkpt>
      <trkpt lat="43.47135" lon="6.6743">
        <ele>35.26</ele>
        <time>2020-10-25T09:42:58Z</time>
      </trkpt>
      <trkpt lat="43.47134" lon="6.67428">
        <ele>35.31</ele>
        <time>2020-10-25T09:42:59Z</time>
      </trkpt>
      <trkpt lat="43.47118" lon="6.6741">
        <ele>35.11</ele>
        <time>2020-10-25T09:43:20Z</time>
      </trkpt>
      <trkpt lat="43.47094" lon="6.67395">
        <ele>35.31</ele>
        <time>2020-10-25T09:43:45Z</time>
      </trkpt>
      <trkpt lat="43.47091" lon="6.67394">
        <ele>35.45</ele>
        <time>2020-10-25T09:43:48Z</time>
      </trkpt>
      <trkpt lat="43.47073" lon="6.67379">
        <ele>35.49</ele>
        <time>2020-10-25T09:44:12Z</time>
      </trkpt>
      <trkpt lat="43.47056" lon="6.67361">
        <ele>35.04</ele>
        <time>2020-10-25T09:44:43Z</time>
      </trkpt>
      <trkpt lat="43.47058" lon="6.67357">
        <ele>35.1</ele>
        <time>2020-10-25T09:45:03Z</time>
      </trkpt>
      <trkpt lat="43.47064" lon="6.67368">
        <ele>34.7</ele>
        <time>2020-10-25T09:53:07Z</time>
      </trkpt>
      <trkpt lat="43.47046" lon="6.67352">
        <ele>34.68</ele>
        <time>2020-10-25T09:53:28Z</time>
      </trkpt>
      <trkpt lat="43.47031" lon="6.67331">
        <ele>34.06</ele>
        <time>2020-10-25T09:53:47Z</time>
      </trkpt>
      <trkpt lat="43.47017" lon="6.67319">
        <ele>33.5</ele>
        <time>2020-10-25T09:54:03Z</time>
      </trkpt>
      <trkpt lat="43.47014" lon="6.6732">
        <ele>33.19</ele>
        <time>2020-10-25T09:54:06Z</time>
      </trkpt>
      <trkpt lat="43.47001" lon="6.67353">
        <ele>31.5</ele>
        <time>2020-10-25T09:54:31Z</time>
      </trkpt>
      <trkpt lat="43.46993" lon="6.67394">
        <ele>30.81</ele>
        <time>2020-10-25T09:54:57Z</time>
      </trkpt>
      <trkpt lat="43.46985" lon="6.67432">
        <ele>29.74</ele>
        <time>2020-10-25T09:55:20Z</time>
      </trkpt>
      <trkpt lat="43.4697" lon="6.67462">
        <ele>28.81</ele>
        <time>2020-10-25T09:55:44Z</time>
      </trkpt>
      <trkpt lat="43.46959" lon="6.67481">
        <ele>27.32</ele>
        <time>2020-10-25T09:56:07Z</time>
      </trkpt>
      <trkpt lat="43.46941" lon="6.67515">
        <ele>26.61</ele>
        <time>2020-10-25T09:56:32Z</time>
      </trkpt>
      <trkpt lat="43.46926" lon="6.67542">
        <ele>25.96</ele>
        <time>2020-10-25T09:56:56Z</time>
      </trkpt>
      <trkpt lat="43.46917" lon="6.67552">
        <ele>25.2</ele>
        <time>2020-10-25T09:57:20Z</time>
      </trkpt>
      <trkpt lat="43.46914" lon="6.67558">
        <ele>25.03</ele>
        <time>2020-10-25T09:57:26Z</time>
      </trkpt>
      <trkpt lat="43.46891" lon="6.67586">
        <ele>23.74</ele>
        <time>2020-10-25T09:57:57Z</time>
      </trkpt>
      <trkpt lat="43.46873" lon="6.67615">
        <ele>22.09</ele>
        <time>2020-10-25T09:58:22Z</time>
      </trkpt>
      <trkpt lat="43.46866" lon="6.67629">
        <ele>21.74</ele>
        <time>2020-10-25T09:58:42Z</time>
      </trkpt>
      <trkpt lat="43.46866" lon="6.6763">
        <ele>21.71</ele>
        <time>2020-10-25T09:58:43Z</time>
      </trkpt>
      <trkpt lat="43.46854" lon="6.67651">
        <ele>21.27</ele>
        <time>2020-10-25T09:59:03Z</time>
      </trkpt>
      <trkpt lat="43.46836" lon="6.67677">
        <ele>20.82</ele>
        <time>2020-10-25T09:59:26Z</time>
      </trkpt>
      <trkpt lat="43.46817" lon="6.677">
        <ele>19.91</ele>
        <time>2020-10-25T09:59:49Z</time>
      </trkpt>
      <trkpt lat="43.46815" lon="6.67702">
        <ele>19.91</ele>
        <time>2020-10-25T09:59:52Z</time>
      </trkpt>
      <trkpt lat="43.46809" lon="6.67711">
        <ele>19.69</ele>
        <time>2020-10-25T10:00:00Z</time>
      </trkpt>
      <trkpt lat="43.46796" lon="6.67725">
        <ele>19.37</ele>
        <time>2020-10-25T10:00:17Z</time>
      </trkpt>
      <trkpt lat="43.46794" lon="6.67728">
        <ele>19.44</ele>
        <time>2020-10-25T10:00:20Z</time>
      </trkpt>
      <trkpt lat="43.46781" lon="6.67748">
        <ele>19.02</ele>
        <time>2020-10-25T10:00:44Z</time>
      </trkpt>
      <trkpt lat="43.46759" lon="6.67779">
        <ele>18.15</ele>
        <time>2020-10-25T10:01:15Z</time>
      </trkpt>
      <trkpt lat="43.46747" lon="6.67797">
        <ele>17.38</ele>
        <time>2020-10-25T10:01:35Z</time>
      </trkpt>
      <trkpt lat="43.46741" lon="6.67808">
        <ele>16.95</ele>
        <time>2020-10-25T10:01:45Z</time>
      </trkpt>
      <trkpt lat="43.46723" lon="6.67835">
        <ele>15.89</ele>
        <time>2020-10-25T10:02:09Z</time>
      </trkpt>
      <trkpt lat="43.46708" lon="6.67862">
        <ele>15.31</ele>
        <time>2020-10-25T10:02:31Z</time>
      </trkpt>
      <trkpt lat="43.46692" lon="6.67889">
        <ele>14.31</ele>
        <time>2020-10-25T10:02:54Z</time>
      </trkpt>
      <trkpt lat="43.46679" lon="6.67913">
        <ele>13.28</ele>
        <time>2020-10-25T10:03:17Z</time>
      </trkpt>
      <trkpt lat="43.4669" lon="6.67927">
        <ele>11.98</ele>
        <time>2020-10-25T10:03:38Z</time>
      </trkpt>
      <trkpt lat="43.46716" lon="6.67952">
        <ele>10.39</ele>
        <time>2020-10-25T10:04:04Z</time>
      </trkpt>
      <trkpt lat="43.46736" lon="6.67977">
        <ele>9.66</ele>
        <time>2020-10-25T10:04:30Z</time>
      </trkpt>
      <trkpt lat="43.46738" lon="6.67977">
        <ele>9.68</ele>
        <time>2020-10-25T10:04:37Z</time>
      </trkpt>
      <trkpt lat="43.46741" lon="6.67982">
        <ele>9.6</ele>
        <time>2020-10-25T10:04:41Z</time>
      </trkpt>
      <trkpt lat="43.46764" lon="6.68008">
        <ele>9.2</ele>
        <time>2020-10-25T10:05:08Z</time>
      </trkpt>
      <trkpt lat="43.46765" lon="6.6801">
        <ele>9.13</ele>
        <time>2020-10-25T10:05:11Z</time>
      </trkpt>
      <trkpt lat="43.46769" lon="6.68013">
        <ele>8.97</ele>
        <time>2020-10-25T10:05:15Z</time>
      </trkpt>
      <trkpt lat="43.46794" lon="6.68037">
        <ele>8.36</ele>
        <time>2020-10-25T10:05:43Z</time>
      </trkpt>
      <trkpt lat="43.4682" lon="6.68069">
        <ele>8.1</ele>
        <time>2020-10-25T10:06:11Z</time>
      </trkpt>
      <trkpt lat="43.4683" lon="6.6808">
        <ele>7.8</ele>
        <time>2020-10-25T10:06:22Z</time>
      </trkpt>
      <trkpt lat="43.46837" lon="6.68095">
        <ele>7.55</ele>
        <time>2020-10-25T10:06:34Z</time>
      </trkpt>
      <trkpt lat="43.46833" lon="6.68109">
        <ele>7.31</ele>
        <time>2020-10-25T10:06:44Z</time>
      </trkpt>
      <trkpt lat="43.46828" lon="6.68118">
        <ele>7.13</ele>
        <time>2020-10-25T10:06:51Z</time>
      </trkpt>
      <trkpt lat="43.46815" lon="6.68149">
        <ele>6.74</ele>
        <time>2020-10-25T10:07:13Z</time>
      </trkpt>
      <trkpt lat="43.46797" lon="6.68177">
        <ele>6.26</ele>
        <time>2020-10-25T10:07:39Z</time>
      </trkpt>
      <trkpt lat="43.46785" lon="6.6824">
        <ele>22.7</ele>
      </trkpt>
    </trkseg>
  </trk>
</gpx>